Markleton, Pennsylvania
Current Conditions -  °F | °C
As of 9:25 AM on Monday 20 Oct 2014 (Local Time) from K2G4 Reporting Station
Clear Clear  
Wind Chill: 33°   Ceiling: Unl
Heat Index: 39°   Visibility: 10mi
Dew Point: 36°   Wind: 9mph
Humidity: 87%   Direction: 210°SSW
Pressure: 30.04"   Gusts: NA
Location:  39.86°N, 79.23°W
Report Text: K2G4 201325Z AUTO 21008KT 10SM CLR 04/02 A3004 RMK AO1
Loading
Personal Weather Stations






























Interactive Weather Map
Tropical Storm Tracking
New forecast layout! Learn more

10-Day Weather Forecast

Advertisements
Track Severe Weather on mobile